createdAt,value
2019-02-20T00:00:10.764Z,6.00
2019-02-20T00:01:10.762Z,5.70
2019-02-20T00:02:10.736Z,6.40
2019-02-20T00:03:10.724Z,6.50
2019-02-20T00:04:10.750Z,5.90
2019-02-20T00:05:10.701Z,6.10
2019-02-20T00:06:10.709Z,6.40
2019-02-20T00:07:10.677Z,6.20
2019-02-20T00:08:10.709Z,5.60
2019-02-20T00:09:10.702Z,6.40
2019-02-20T00:10:10.713Z,5.80
2019-02-20T00:11:10.681Z,6.00
2019-02-20T00:12:10.630Z,6.60
2019-02-20T00:13:10.611Z,5.70
2019-02-20T00:14:10.615Z,4.80
2019-02-20T00:15:10.627Z,5.60
2019-02-20T00:16:10.596Z,6.10
2019-02-20T00:17:10.591Z,5.30
2019-02-20T00:18:10.583Z,5.50
2019-02-20T00:19:10.588Z,5.60
2019-02-20T00:20:10.542Z,5.40
2019-02-20T00:21:10.561Z,5.70
2019-02-20T00:22:10.550Z,5.90
2019-02-20T00:23:10.514Z,5.70
2019-02-20T00:24:10.506Z,5.50
2019-02-20T00:25:10.510Z,5.70
2019-02-20T00:26:10.479Z,5.70
2019-02-20T00:27:10.461Z,5.20
2019-02-20T00:29:11.578Z,5.20
2019-02-20T00:30:10.489Z,5.70
2019-02-20T00:31:10.426Z,5.40
2019-02-20T00:32:10.421Z,5.40
2019-02-20T00:33:10.400Z,5.40
2019-02-20T00:34:10.394Z,5.70
2019-02-20T00:35:10.411Z,5.90
2019-02-20T00:36:10.435Z,5.60
2019-02-20T00:37:10.358Z,6.30
2019-02-20T00:38:10.384Z,5.50
2019-02-20T00:39:10.345Z,5.90
2019-02-20T00:40:10.386Z,5.60
2019-02-20T00:41:10.345Z,5.80
2019-02-20T00:42:10.309Z,6.10
2019-02-20T00:43:10.291Z,6.00
2019-02-20T00:44:10.294Z,4.90
2019-02-20T00:45:10.323Z,5.70
2019-02-20T00:46:10.268Z,5.80
2019-02-20T00:47:10.256Z,5.70
2019-02-20T00:48:10.244Z,5.80
2019-02-20T00:49:10.244Z,5.70
2019-02-20T00:50:10.230Z,5.40
2019-02-20T00:51:10.235Z,5.40
2019-02-20T00:52:10.209Z,5.90
2019-02-20T00:53:10.196Z,6.50
2019-02-20T00:54:10.186Z,6.10
2019-02-20T00:55:10.167Z,6.20
2019-02-20T00:56:10.185Z,6.20
2019-02-20T00:57:10.152Z,6.70
2019-02-20T00:58:10.151Z,6.30
2019-02-20T00:59:10.139Z,6.50
2019-02-20T01:00:10.120Z,6.90
2019-02-20T01:01:10.128Z,6.70
2019-02-20T01:02:10.131Z,7.50
2019-02-20T01:03:10.108Z,8.70
2019-02-20T01:04:10.080Z,8.00
2019-02-20T01:05:10.059Z,7.20
2019-02-20T01:06:10.083Z,7.30
2019-02-20T01:07:10.037Z,7.60
2019-02-20T01:08:10.032Z,8.70
2019-02-20T01:09:10.040Z,8.40
2019-02-20T01:10:10.025Z,9.00
2019-02-20T01:11:10.022Z,9.40
2019-02-20T01:12:09.989Z,9.20
2019-02-20T01:13:09.974Z,10.50
2019-02-20T01:14:09.973Z,10.10
2019-02-20T01:15:09.964Z,9.80
2019-02-20T01:16:09.979Z,9.90
2019-02-20T01:17:09.974Z,10.80
2019-02-20T01:18:09.957Z,10.30
2019-02-20T01:19:09.910Z,10.20
2019-02-20T01:20:09.904Z,11.10
2019-02-20T01:21:09.921Z,11.60
2019-02-20T01:22:09.882Z,11.60
2019-02-20T01:23:09.870Z,11.40
2019-02-20T01:24:09.866Z,11.20
2019-02-20T01:25:09.846Z,11.50
2019-02-20T01:26:09.842Z,11.90
2019-02-20T01:27:09.855Z,10.70
2019-02-20T01:28:09.823Z,11.60
2019-02-20T01:29:09.808Z,12.20
2019-02-20T01:30:09.840Z,12.00
2019-02-20T01:31:09.780Z,11.80
2019-02-20T01:32:09.807Z,12.50
2019-02-20T01:33:09.770Z,12.10
2019-02-20T01:34:09.762Z,12.80
2019-02-20T01:35:09.741Z,12.40
2019-02-20T01:36:09.733Z,12.40
2019-02-20T01:37:09.750Z,12.40
2019-02-20T01:38:09.717Z,12.70
2019-02-20T01:39:09.727Z,13.20
2019-02-20T01:40:09.699Z,12.60
2019-02-20T01:41:09.676Z,13.50
2019-02-20T01:42:09.715Z,13.70
2019-02-20T01:43:09.657Z,13.20
2019-02-20T01:44:09.652Z,13.10
2019-02-20T01:45:09.637Z,13.00
2019-02-20T01:46:09.644Z,13.00
2019-02-20T01:47:09.617Z,13.10
2019-02-20T01:48:09.663Z,13.40
2019-02-20T01:49:09.589Z,13.30
2019-02-20T01:50:09.604Z,13.20
2019-02-20T01:51:09.600Z,13.90
2019-02-20T01:52:09.575Z,14.00
2019-02-20T01:53:10.635Z,13.90
2019-02-20T01:54:09.558Z,13.20
2019-02-20T01:55:09.526Z,13.30
2019-02-20T01:56:09.529Z,13.80
2019-02-20T01:57:09.506Z,13.30
2019-02-20T01:58:09.542Z,13.10
2019-02-20T01:59:09.502Z,14.20
2019-02-20T02:00:09.483Z,14.80
2019-02-20T02:01:09.465Z,14.00
2019-02-20T02:02:09.474Z,14.20
2019-02-20T02:03:09.474Z,14.00
2019-02-20T02:04:09.436Z,13.50
2019-02-20T02:05:15.152Z,14.10
2019-02-20T02:06:10.429Z,14.10
2019-02-20T02:07:09.402Z,13.60
2019-02-20T02:08:09.434Z,14.80
2019-02-20T02:09:09.389Z,14.30
2019-02-20T02:10:09.372Z,14.70
2019-02-20T02:11:09.358Z,14.00
2019-02-20T02:12:09.359Z,13.90
2019-02-20T02:13:09.372Z,14.30
2019-02-20T02:14:09.342Z,14.50
2019-02-20T02:15:09.319Z,13.60
2019-02-20T02:16:09.313Z,14.00
2019-02-20T02:17:09.333Z,15.20
2019-02-20T02:18:09.320Z,15.80
2019-02-20T02:19:09.305Z,15.10
2019-02-20T02:20:09.273Z,14.00
2019-02-20T02:21:09.282Z,15.80
2019-02-20T02:22:09.258Z,14.10
2019-02-20T02:23:09.237Z,15.00
2019-02-20T02:24:09.289Z,15.00
2019-02-20T02:25:09.249Z,14.60
2019-02-20T02:26:11.117Z,14.20
2019-02-20T02:27:09.217Z,14.80
2019-02-20T02:28:09.219Z,15.50
2019-02-20T02:29:09.210Z,14.80
2019-02-20T02:30:09.175Z,14.00
2019-02-20T02:31:09.153Z,15.00
2019-02-20T02:32:09.142Z,15.10
2019-02-20T02:33:09.128Z,15.10
2019-02-20T02:34:09.153Z,15.60
2019-02-20T02:35:09.104Z,15.50
2019-02-20T02:36:09.104Z,15.10
2019-02-20T02:37:09.109Z,14.30
2019-02-20T02:38:09.169Z,15.30
2019-02-20T02:39:09.085Z,14.90
2019-02-20T02:40:09.067Z,14.90
2019-02-20T02:41:09.041Z,15.10
2019-02-20T02:42:09.056Z,14.50
2019-02-20T02:43:09.021Z,13.90
2019-02-20T02:44:09.141Z,14.90
2019-02-20T02:45:09.007Z,15.10
2019-02-20T02:46:08.989Z,14.20
2019-02-20T02:47:08.975Z,14.00
2019-02-20T02:48:08.972Z,15.10
2019-02-20T02:49:08.983Z,14.70
2019-02-20T02:50:08.950Z,15.40
2019-02-20T02:51:08.946Z,14.50
2019-02-20T02:52:08.933Z,14.90
2019-02-20T02:53:08.918Z,14.90
2019-02-20T02:54:08.913Z,14.30
2019-02-20T02:55:08.920Z,14.50
2019-02-20T02:56:08.885Z,14.40
2019-02-20T02:57:08.871Z,14.10
2019-02-20T02:58:08.874Z,15.40
2019-02-20T02:59:08.847Z,13.90
2019-02-20T03:00:08.871Z,14.70
2019-02-20T03:01:08.834Z,14.70
2019-02-20T03:02:08.821Z,14.40
2019-02-20T03:03:08.811Z,14.70
2019-02-20T03:04:08.795Z,15.10
2019-02-20T03:05:08.814Z,14.50
2019-02-20T03:06:08.796Z,14.70
2019-02-20T03:07:08.762Z,14.50
2019-02-20T03:08:08.753Z,14.80
2019-02-20T03:09:08.741Z,14.80
2019-02-20T03:10:08.764Z,14.70
2019-02-20T03:11:08.735Z,14.40
2019-02-20T03:12:08.736Z,14.30
2019-02-20T03:13:08.694Z,15.00
2019-02-20T03:14:08.693Z,14.70
2019-02-20T03:15:08.700Z,13.20
2019-02-20T03:16:08.669Z,14.10
2019-02-20T03:17:08.649Z,13.50
2019-02-20T03:18:08.651Z,14.20
2019-02-20T03:19:08.633Z,14.00
2019-02-20T03:20:08.653Z,13.30
2019-02-20T03:21:08.606Z,14.00
2019-02-20T03:22:08.618Z,13.50
2019-02-20T03:23:08.586Z,13.70
2019-02-20T03:24:08.583Z,14.50
2019-02-20T03:25:08.615Z,13.80
2019-02-20T03:26:08.566Z,14.30
2019-02-20T03:27:08.552Z,14.00
2019-02-20T03:28:08.543Z,13.60
2019-02-20T03:29:08.527Z,13.30
2019-02-20T03:30:08.518Z,13.60
2019-02-20T03:31:08.559Z,13.60
2019-02-20T03:32:08.537Z,13.60
2019-02-20T03:33:08.488Z,14.10
2019-02-20T03:34:09.048Z,12.80
2019-02-20T03:35:08.505Z,13.80
2019-02-20T03:36:08.457Z,14.50
2019-02-20T03:37:08.444Z,13.50
2019-02-20T03:38:08.433Z,13.60
2019-02-20T03:39:08.419Z,13.20
2019-02-20T03:40:08.449Z,13.50
2019-02-20T03:41:08.511Z,12.60
2019-02-20T03:42:08.387Z,14.50
2019-02-20T03:43:08.426Z,15.10
2019-02-20T03:44:08.370Z,13.70
2019-02-20T03:45:08.354Z,13.60
2019-02-20T03:46:08.381Z,14.30
2019-02-20T03:47:08.340Z,13.80
2019-02-20T03:48:08.326Z,13.60
2019-02-20T03:49:08.306Z,13.80
2019-02-20T03:50:08.309Z,13.60
2019-02-20T03:51:08.320Z,14.10
2019-02-20T03:52:08.283Z,13.70
2019-02-20T03:53:08.268Z,13.80
2019-02-20T03:54:08.267Z,13.60
2019-02-20T03:55:08.242Z,13.50
2019-02-20T03:56:09.261Z,14.20
2019-02-20T03:57:08.228Z,13.80
2019-02-20T03:58:08.227Z,14.20
2019-02-20T03:59:08.203Z,13.50
2019-02-20T04:00:08.208Z,13.40
2019-02-20T04:01:08.205Z,13.80
2019-02-20T04:02:08.172Z,13.90
2019-02-20T04:03:08.180Z,14.70
2019-02-20T04:04:08.150Z,13.60
2019-02-20T04:05:08.132Z,13.50
2019-02-20T04:06:08.165Z,14.10
2019-02-20T04:07:08.137Z,13.90
2019-02-20T04:08:08.111Z,14.70
2019-02-20T04:09:08.113Z,13.40
2019-02-20T04:10:09.129Z,14.20
2019-02-20T04:11:08.071Z,13.40
2019-02-20T04:12:08.094Z,14.20
2019-02-20T04:13:08.065Z,14.80
2019-02-20T04:14:08.043Z,14.60
2019-02-20T04:15:08.026Z,15.00
2019-02-20T04:16:08.025Z,13.10
2019-02-20T04:17:08.030Z,13.60
2019-02-20T04:19:09.111Z,13.90
2019-02-20T04:20:07.987Z,13.90
2019-02-20T04:21:07.959Z,14.00
2019-02-20T04:22:07.984Z,13.90
2019-02-20T04:23:07.943Z,14.90
2019-02-20T04:24:07.951Z,15.00
2019-02-20T04:25:07.920Z,13.60
2019-02-20T04:26:09.844Z,13.80
2019-02-20T04:27:07.922Z,15.10
2019-02-20T04:28:07.899Z,14.30
2019-02-20T04:29:07.885Z,14.80
2019-02-20T04:30:07.875Z,14.40
2019-02-20T04:31:07.862Z,14.90
2019-02-20T04:32:07.918Z,13.30
2019-02-20T04:33:07.933Z,13.70
2019-02-20T04:34:07.826Z,13.80
2019-02-20T04:35:07.820Z,14.10
2019-02-20T04:39:40.906Z,14.50
2019-02-20T04:40:40.843Z,13.70
2019-02-20T04:41:40.851Z,14.10
2019-02-20T04:42:40.842Z,13.60
2019-02-20T04:43:40.817Z,13.70
2019-02-20T04:44:40.797Z,13.80
2019-02-20T04:45:40.803Z,13.90
2019-02-20T04:46:40.775Z,14.40
2019-02-20T04:47:40.812Z,13.00
2019-02-20T04:48:40.757Z,13.90
2019-02-20T04:49:40.752Z,13.50
2019-02-20T04:50:40.736Z,13.80
2019-02-20T04:51:40.731Z,15.00
2019-02-20T04:52:40.754Z,15.20
2019-02-20T04:53:40.710Z,14.80
2019-02-20T04:54:40.692Z,14.50
2019-02-20T04:55:40.703Z,14.50
2019-02-20T04:56:40.672Z,14.90
2019-02-20T04:57:40.712Z,14.60
2019-02-20T04:58:40.646Z,14.90
2019-02-20T04:59:40.647Z,15.30
2019-02-20T05:00:40.634Z,15.40
2019-02-20T05:01:40.622Z,15.60
2019-02-20T05:02:40.646Z,15.60
2019-02-20T05:03:40.605Z,15.50
2019-02-20T05:04:40.584Z,15.20
2019-02-20T05:05:40.582Z,15.00
2019-02-20T05:06:40.571Z,14.80
2019-02-20T05:07:40.595Z,16.20
2019-02-20T05:08:40.623Z,15.30
2019-02-20T05:09:40.545Z,15.60
2019-02-20T05:10:40.517Z,15.50
2019-02-20T05:11:40.519Z,15.80
2019-02-20T05:12:40.498Z,16.00
2019-02-20T05:13:40.541Z,17.00
2019-02-20T05:14:40.474Z,15.40
2019-02-20T05:15:40.470Z,16.50
2019-02-20T05:16:40.459Z,15.20
2019-02-20T05:17:40.445Z,15.90
2019-02-20T05:18:40.463Z,16.30
2019-02-20T05:19:40.435Z,15.40
2019-02-20T05:20:40.416Z,15.30
2019-02-20T05:21:40.412Z,15.80
2019-02-20T05:22:40.398Z,16.50
2019-02-20T05:23:42.662Z,16.20
2019-02-20T05:24:40.370Z,15.50
2019-02-20T05:25:40.367Z,15.60
2019-02-20T05:26:40.344Z,16.20
2019-02-20T05:27:40.347Z,15.40
2019-02-20T05:28:40.354Z,16.60
2019-02-20T05:29:40.349Z,15.80
2019-02-20T05:30:40.316Z,16.20
2019-02-20T05:31:40.300Z,17.10
2019-02-20T05:32:40.301Z,16.30
2019-02-20T05:33:40.304Z,16.50
2019-02-20T05:34:40.282Z,16.50
2019-02-20T05:35:40.252Z,17.50
2019-02-20T05:36:40.237Z,16.80
2019-02-20T05:37:40.235Z,16.60
2019-02-20T05:38:40.255Z,17.40
2019-02-20T05:39:40.211Z,16.90
2019-02-20T05:40:40.211Z,16.50
2019-02-20T05:42:41.300Z,16.40
2019-02-20T05:43:40.170Z,16.60
2019-02-20T05:44:40.178Z,17.00
2019-02-20T05:45:40.152Z,16.20
2019-02-20T05:46:40.128Z,15.80
2019-02-20T05:47:40.131Z,16.30
2019-02-20T05:48:40.112Z,17.50
2019-02-20T05:49:40.137Z,16.30
2019-02-20T05:50:40.088Z,15.90
2019-02-20T05:51:40.093Z,18.20
2019-02-20T05:52:40.064Z,17.60
2019-02-20T05:53:40.064Z,18.00
2019-02-20T05:54:40.075Z,17.10
2019-02-20T05:55:40.043Z,17.20
2019-02-20T05:56:40.029Z,16.50
2019-02-20T05:57:40.025Z,17.50
2019-02-20T05:58:40.000Z,16.80
2019-02-20T05:59:40.039Z,17.30
2019-02-20T06:00:39.983Z,17.80
2019-02-20T06:01:40.008Z,17.70
2019-02-20T06:02:39.957Z,18.00
2019-02-20T06:03:39.956Z,18.00
2019-02-20T06:04:39.973Z,17.20
2019-02-20T06:05:39.934Z,18.60
2019-02-20T06:06:39.921Z,17.60
2019-02-20T06:07:39.910Z,17.30
2019-02-20T06:08:39.897Z,18.00
2019-02-20T06:09:39.944Z,17.10
2019-02-20T06:10:39.887Z,18.70
2019-02-20T06:11:39.872Z,17.20
2019-02-20T06:12:39.864Z,17.50
2019-02-20T06:13:39.857Z,18.30
2019-02-20T06:14:39.857Z,17.50
2019-02-20T06:15:39.854Z,17.80
2019-02-20T06:16:39.824Z,17.40
2019-02-20T06:17:39.808Z,18.90
2019-02-20T06:18:39.788Z,17.70
2019-02-20T06:19:39.788Z,17.70
2019-02-20T06:20:39.794Z,17.60
2019-02-20T06:21:39.761Z,18.40
2019-02-20T06:22:39.765Z,17.40
2019-02-20T06:23:39.750Z,17.60
2019-02-20T06:24:44.104Z,18.10
2019-02-20T06:25:39.765Z,18.20
2019-02-20T06:26:39.706Z,17.60
2019-02-20T06:27:39.719Z,18.10
2019-02-20T06:28:39.683Z,18.30
2019-02-20T06:29:39.692Z,18.30
2019-02-20T06:30:39.684Z,18.10
2019-02-20T06:31:39.668Z,19.00
2019-02-20T06:32:39.642Z,18.50
2019-02-20T06:33:39.633Z,18.40
2019-02-20T06:34:39.624Z,18.80
2019-02-20T06:35:39.648Z,18.80
2019-02-20T06:36:39.595Z,18.50
2019-02-20T06:37:39.604Z,18.60
2019-02-20T06:38:39.577Z,18.00
2019-02-20T06:39:39.581Z,17.80
2019-02-20T06:40:39.555Z,19.10
2019-02-20T06:41:39.715Z,19.00
2019-02-20T06:42:39.534Z,18.30
2019-02-20T06:43:39.555Z,17.80
2019-02-20T06:44:39.514Z,18.50
2019-02-20T06:45:39.510Z,18.20
2019-02-20T06:46:39.518Z,19.30
2019-02-20T06:47:39.543Z,18.40
2019-02-20T06:48:39.489Z,19.00
2019-02-20T06:49:39.482Z,17.50
2019-02-20T06:50:39.453Z,18.40
2019-02-20T06:51:39.482Z,17.90
2019-02-20T06:52:39.432Z,17.80
2019-02-20T06:53:39.425Z,18.10
2019-02-20T06:54:39.407Z,18.00
2019-02-20T06:55:39.400Z,18.40
2019-02-20T06:56:39.413Z,17.50
2019-02-20T06:57:39.383Z,17.50
2019-02-20T06:58:39.404Z,17.70
2019-02-20T06:59:39.358Z,16.70
2019-02-20T07:00:39.341Z,17.30
2019-02-20T07:01:39.371Z,18.10
2019-02-20T07:02:39.321Z,17.70
2019-02-20T07:03:39.348Z,16.90
2019-02-20T07:04:39.299Z,17.20
2019-02-20T07:05:39.303Z,18.00
2019-02-20T07:06:39.310Z,17.40
2019-02-20T07:07:39.273Z,16.50
2019-02-20T07:08:39.264Z,16.30
2019-02-20T07:09:39.257Z,16.40
2019-02-20T07:10:39.277Z,16.60
2019-02-20T07:11:39.274Z,16.30
2019-02-20T07:12:39.215Z,16.30
2019-02-20T07:13:39.209Z,17.00
2019-02-20T07:14:39.195Z,16.20
2019-02-20T07:15:39.188Z,16.10
2019-02-20T07:16:39.177Z,16.40
2019-02-20T07:17:39.197Z,16.40
2019-02-20T07:18:39.155Z,15.80
2019-02-20T07:20:40.255Z,15.60
2019-02-20T07:21:39.135Z,15.80
2019-02-20T07:22:39.160Z,14.40
2019-02-20T07:23:39.105Z,16.50
2019-02-20T07:24:39.089Z,14.90
2019-02-20T07:25:39.086Z,15.90
2019-02-20T07:26:39.073Z,15.00
2019-02-20T07:27:39.087Z,15.30
2019-02-20T07:28:39.059Z,15.10
2019-02-20T07:29:39.052Z,15.20
2019-02-20T07:30:39.035Z,14.40
2019-02-20T07:31:39.017Z,15.00
2019-02-20T07:32:39.028Z,14.90
2019-02-20T07:33:39.010Z,14.70
2019-02-20T07:34:38.984Z,14.40
2019-02-20T07:35:39.007Z,15.90
2019-02-20T07:36:38.962Z,14.40
2019-02-20T07:37:38.991Z,14.10
2019-02-20T07:38:38.941Z,14.30
2019-02-20T07:39:38.932Z,13.90
2019-02-20T07:40:38.924Z,14.50
2019-02-20T07:41:38.909Z,14.60
2019-02-20T07:42:38.891Z,14.60
2019-02-20T07:43:38.919Z,14.70
2019-02-20T07:44:38.868Z,14.60
2019-02-20T07:45:38.873Z,14.40
2019-02-20T07:46:38.855Z,14.80
2019-02-20T07:47:38.856Z,13.50
2019-02-20T07:48:38.859Z,15.10
2019-02-20T07:49:38.847Z,14.60
2019-02-20T07:50:38.810Z,14.00
2019-02-20T07:51:38.801Z,14.40
2019-02-20T07:52:38.787Z,14.80
2019-02-20T07:53:38.812Z,14.80
2019-02-20T07:54:38.766Z,15.10
2019-02-20T07:55:38.773Z,14.80
2019-02-20T07:56:38.748Z,14.40
2019-02-20T07:57:38.736Z,15.00
2019-02-20T07:58:38.877Z,14.20
2019-02-20T07:59:38.714Z,13.60
2019-02-20T08:00:38.706Z,14.80
2019-02-20T08:01:38.705Z,14.70
2019-02-20T08:02:38.677Z,14.20
2019-02-20T08:03:38.704Z,13.60
2019-02-20T08:04:38.659Z,14.10
2019-02-20T08:05:38.648Z,14.20
2019-02-20T08:06:38.698Z,14.10
2019-02-20T08:07:38.632Z,13.80
2019-02-20T08:08:38.670Z,13.90
2019-02-20T08:09:38.612Z,14.10
2019-02-20T08:10:38.616Z,14.50
2019-02-20T08:11:38.592Z,13.80
2019-02-20T08:12:38.567Z,14.20
2019-02-20T08:13:39.567Z,13.60
2019-02-20T08:14:38.574Z,14.60
2019-02-20T08:15:38.541Z,14.20
2019-02-20T08:16:38.528Z,14.10
2019-02-20T08:17:38.524Z,13.70
2019-02-20T08:18:38.536Z,14.30
2019-02-20T08:19:38.547Z,13.50
2019-02-20T08:20:38.487Z,14.00
2019-02-20T08:21:38.489Z,13.90
2019-02-20T08:22:38.465Z,13.80
2019-02-20T08:23:38.456Z,13.10
2019-02-20T08:24:38.465Z,12.70
2019-02-20T08:25:38.447Z,12.40
2019-02-20T08:26:38.456Z,13.20
2019-02-20T08:27:38.425Z,13.60
2019-02-20T08:28:38.393Z,13.30
2019-02-20T08:29:38.414Z,12.50
2019-02-20T08:30:38.380Z,12.60
2019-02-20T08:31:38.369Z,13.00
2019-02-20T08:32:38.350Z,13.20
2019-02-20T08:33:38.343Z,13.40
2019-02-20T08:34:38.333Z,12.80
2019-02-20T08:35:38.352Z,13.00
2019-02-20T08:36:38.313Z,12.80
2019-02-20T08:37:38.298Z,15.10
2019-02-20T08:38:38.288Z,13.00
2019-02-20T08:39:38.279Z,12.40
2019-02-20T08:40:38.286Z,13.30
2019-02-20T08:41:38.276Z,12.90
2019-02-20T08:42:38.242Z,13.50
2019-02-20T08:43:38.244Z,12.90
2019-02-20T08:44:38.234Z,12.50
2019-02-20T08:45:38.248Z,12.60
2019-02-20T08:46:38.201Z,13.10
2019-02-20T08:47:38.198Z,13.00
2019-02-20T08:48:38.174Z,13.00
2019-02-20T08:49:38.174Z,12.50
2019-02-20T08:50:38.177Z,12.20
2019-02-20T08:51:38.154Z,12.30
2019-02-20T08:52:38.132Z,12.50
2019-02-20T08:53:38.127Z,12.40
2019-02-20T08:54:38.110Z,12.80
2019-02-20T08:55:38.132Z,12.60
2019-02-20T08:56:38.090Z,12.70
2019-02-20T08:57:38.089Z,12.80
2019-02-20T08:58:38.068Z,12.00
2019-02-20T08:59:38.065Z,12.90
2019-02-20T09:00:38.071Z,11.90
2019-02-20T09:01:38.040Z,11.90
2019-02-20T09:02:38.022Z,12.40
2019-02-20T09:03:38.015Z,12.10
2019-02-20T09:04:38.010Z,13.00
2019-02-20T09:05:38.018Z,12.30
2019-02-20T09:06:37.977Z,12.70
2019-02-20T09:07:37.979Z,12.30
2019-02-20T09:08:37.960Z,12.30
2019-02-20T09:09:37.954Z,12.80
2019-02-20T09:10:37.960Z,12.50
2019-02-20T09:11:37.932Z,12.50
2019-02-20T09:12:37.916Z,12.00
2019-02-20T09:13:37.910Z,12.20
2019-02-20T09:14:37.893Z,12.80
2019-02-20T09:15:37.915Z,11.20
2019-02-20T09:16:37.897Z,12.20
2019-02-20T09:18:38.975Z,12.90
2019-02-20T09:19:37.842Z,12.60
2019-02-20T09:20:37.840Z,12.70
2019-02-20T09:21:37.848Z,12.00
2019-02-20T09:22:39.492Z,12.90
2019-02-20T09:23:37.803Z,12.40
2019-02-20T09:24:37.783Z,12.10
2019-02-20T09:25:41.626Z,12.40
2019-02-20T09:26:37.807Z,12.60
2019-02-20T09:27:37.760Z,11.80
2019-02-20T09:28:37.740Z,13.20
2019-02-20T09:29:37.757Z,12.60
2019-02-20T09:30:37.714Z,12.20
2019-02-20T09:31:37.743Z,12.20
2019-02-20T09:32:37.700Z,11.40
2019-02-20T09:33:37.688Z,12.00
2019-02-20T09:34:37.682Z,12.10
2019-02-20T09:35:37.670Z,11.50
2019-02-20T09:37:38.803Z,11.20
2019-02-20T09:38:37.761Z,12.20
2019-02-20T09:39:37.752Z,13.00
2019-02-20T09:40:37.750Z,12.30
2019-02-20T09:41:37.727Z,11.90
2019-02-20T09:42:37.734Z,12.50
2019-02-20T09:43:37.589Z,11.80
2019-02-20T09:44:37.580Z,12.10
2019-02-20T09:45:41.853Z,12.20
2019-02-20T09:46:38.548Z,12.00
2019-02-20T09:47:37.584Z,11.90
2019-02-20T09:48:37.523Z,12.20
2019-02-20T09:49:37.511Z,11.00
2019-02-20T09:51:38.624Z,12.50
2019-02-20T09:52:37.504Z,11.30
2019-02-20T09:53:37.464Z,12.40
2019-02-20T09:54:37.472Z,13.00
2019-02-20T09:55:37.447Z,12.20
2019-02-20T09:56:37.446Z,11.80
2019-02-20T09:57:37.455Z,11.70
2019-02-20T09:58:37.441Z,12.30
2019-02-20T09:59:37.408Z,11.60
2019-02-20T10:00:37.395Z,12.60
2019-02-20T10:01:37.385Z,11.60
2019-02-20T10:02:37.406Z,11.70
2019-02-20T10:03:37.387Z,11.90
2019-02-20T10:04:37.360Z,12.10
2019-02-20T10:05:37.332Z,12.30
2019-02-20T10:06:37.340Z,11.70
2019-02-20T10:07:37.350Z,12.60
2019-02-20T10:08:37.321Z,12.70
2019-02-20T10:09:37.299Z,11.20
2019-02-20T10:10:37.290Z,11.50
2019-02-20T10:11:37.277Z,12.30
2019-02-20T10:12:37.308Z,11.70
2019-02-20T10:13:37.280Z,11.30
2019-02-20T10:14:37.262Z,11.20
2019-02-20T10:15:37.232Z,11.20
2019-02-20T10:16:37.223Z,11.10
2019-02-20T10:17:37.206Z,11.70
2019-02-20T10:18:37.229Z,11.80
2019-02-20T10:19:37.187Z,11.50
2019-02-20T10:20:37.195Z,11.10
2019-02-20T10:21:37.164Z,11.70
2019-02-20T10:22:37.156Z,12.50
2019-02-20T10:23:37.168Z,11.50
2019-02-20T10:24:37.140Z,11.20
2019-02-20T10:25:37.123Z,11.50
2019-02-20T10:26:37.116Z,12.20
2019-02-20T10:27:37.101Z,11.90
2019-02-20T10:28:37.271Z,11.30
2019-02-20T10:29:37.090Z,11.60
2019-02-20T10:30:37.070Z,10.60
2019-02-20T10:31:37.059Z,11.60
2019-02-20T10:32:37.076Z,11.20
2019-02-20T10:33:37.037Z,12.20
2019-02-20T10:34:37.082Z,10.90
2019-02-20T10:35:37.017Z,10.80
2019-02-20T10:36:37.027Z,11.60
2019-02-20T10:37:36.999Z,10.60
2019-02-20T10:38:37.025Z,10.70
2019-02-20T10:39:36.967Z,10.60
2019-02-20T10:40:36.967Z,11.20
2019-02-20T10:41:36.949Z,10.60
2019-02-20T10:42:36.948Z,11.60
2019-02-20T10:43:36.951Z,11.00
2019-02-20T10:44:36.962Z,11.00
2019-02-20T10:45:36.901Z,11.20
2019-02-20T10:46:36.900Z,11.80
2019-02-20T10:47:36.883Z,11.60
2019-02-20T10:48:36.884Z,11.80
2019-02-20T10:49:36.897Z,11.40
2019-02-20T10:50:36.889Z,11.70
2019-02-20T10:51:36.832Z,12.30
2019-02-20T10:52:36.836Z,12.70
2019-02-20T10:53:36.815Z,12.10
2019-02-20T10:54:36.848Z,12.50
2019-02-20T10:55:36.798Z,12.20
2019-02-20T10:56:36.789Z,12.60
2019-02-20T10:57:36.776Z,12.70
2019-02-20T10:58:36.771Z,11.90
2019-02-20T10:59:36.780Z,12.70
2019-02-20T11:01:37.856Z,12.90
2019-02-20T11:02:36.722Z,12.80
2019-02-20T11:03:36.707Z,12.20
2019-02-20T11:04:36.728Z,12.50
2019-02-20T11:05:36.698Z,12.40
2019-02-20T11:06:36.675Z,13.40
2019-02-20T11:07:36.661Z,11.70
2019-02-20T11:08:36.661Z,11.40
2019-02-20T11:09:36.664Z,13.50
2019-02-20T11:10:36.670Z,13.10
2019-02-20T11:11:36.613Z,12.90
2019-02-20T11:12:36.616Z,12.20
2019-02-20T11:13:36.591Z,12.60
2019-02-20T11:14:37.810Z,13.40
2019-02-20T11:15:36.574Z,13.00
2019-02-20T11:16:36.574Z,13.00
2019-02-20T11:17:37.177Z,13.10
2019-02-20T11:18:36.546Z,12.70
2019-02-20T11:19:36.558Z,13.40
2019-02-20T11:20:36.545Z,12.70
2019-02-20T11:21:36.503Z,12.90
2019-02-20T11:22:36.501Z,13.10
2019-02-20T11:23:36.501Z,13.10
2019-02-20T11:24:36.480Z,12.60
2019-02-20T11:25:36.507Z,11.80
2019-02-20T11:26:43.493Z,13.30
2019-02-20T11:27:39.379Z,14.20
2019-02-20T11:28:36.434Z,12.70
2019-02-20T11:29:36.417Z,13.80
2019-02-20T11:30:36.437Z,13.10
2019-02-20T11:31:36.404Z,12.70
2019-02-20T11:32:36.395Z,12.80
2019-02-20T11:33:36.380Z,13.10
2019-02-20T11:35:37.569Z,15.10
2019-02-20T11:36:36.351Z,12.90
2019-02-20T11:37:36.332Z,13.70
2019-02-20T11:38:36.374Z,13.80
2019-02-20T11:39:37.912Z,14.20
2019-02-20T11:40:36.346Z,13.60
2019-02-20T11:41:36.287Z,13.00
2019-02-20T11:42:36.312Z,13.90
2019-02-20T11:43:36.268Z,14.10
2019-02-20T11:45:37.380Z,14.60
2019-02-20T11:47:37.415Z,15.80
2019-02-20T11:49:37.329Z,15.50
2019-02-20T11:50:36.333Z,15.30
2019-02-20T11:51:36.338Z,16.40
2019-02-20T11:52:38.295Z,16.00
2019-02-20T11:53:37.368Z,16.40
2019-02-20T11:54:36.280Z,16.20
2019-02-20T11:55:36.144Z,16.80
2019-02-20T11:56:36.171Z,17.40
2019-02-20T11:57:36.121Z,17.30
2019-02-20T11:58:36.111Z,17.00
2019-02-20T11:59:36.090Z,18.60
2019-02-20T12:00:36.127Z,17.80
2019-02-20T12:02:37.627Z,17.90
2019-02-20T12:03:36.066Z,17.90
2019-02-20T12:04:36.071Z,18.20
2019-02-20T12:06:37.145Z,16.80
2019-02-20T12:07:37.072Z,20.90
2019-02-20T12:08:36.189Z,18.90
2019-02-20T12:10:37.105Z,17.60
2019-02-20T12:11:36.302Z,17.00
2019-02-20T12:12:36.314Z,18.10
2019-02-20T12:13:36.103Z,17.90
2019-02-20T12:14:36.138Z,16.90
2019-02-20T12:15:36.025Z,16.40
2019-02-20T12:16:35.903Z,17.30
2019-02-20T12:18:37.020Z,17.20
2019-02-20T12:19:36.009Z,16.50
2019-02-20T12:20:36.005Z,16.60
2019-02-20T12:21:35.996Z,16.80
2019-02-20T12:22:35.999Z,16.20
2019-02-20T12:23:36.865Z,16.10
2019-02-20T12:24:35.819Z,16.40
2019-02-20T12:25:35.814Z,16.50
2019-02-20T12:26:35.794Z,15.90
2019-02-20T12:27:35.868Z,15.70
2019-02-20T12:28:35.777Z,15.20
2019-02-20T12:29:35.868Z,15.70
2019-02-20T12:30:35.754Z,14.80
2019-02-20T12:31:35.748Z,15.10
2019-02-20T12:32:35.732Z,15.50
2019-02-20T12:33:35.779Z,15.80
2019-02-20T12:34:35.713Z,16.00
2019-02-20T12:35:35.722Z,15.80
2019-02-20T12:36:35.688Z,16.20
2019-02-20T12:37:35.709Z,16.10
2019-02-20T12:38:37.150Z,15.50
2019-02-20T12:39:35.670Z,14.80
2019-02-20T12:40:35.651Z,14.10
2019-02-20T12:41:35.643Z,14.90
2019-02-20T12:42:35.627Z,14.60
2019-02-20T12:43:35.645Z,15.40
2019-02-20T12:44:35.600Z,14.40
2019-02-20T12:45:35.593Z,15.20
2019-02-20T12:46:35.582Z,15.40
2019-02-20T12:47:35.575Z,16.00
2019-02-20T12:48:35.591Z,15.70
2019-02-20T12:49:35.552Z,17.20
2019-02-20T12:50:35.549Z,17.00
2019-02-20T12:52:36.645Z,15.90
2019-02-20T12:53:35.535Z,15.60
2019-02-20T12:54:35.499Z,16.10
2019-02-20T12:55:35.496Z,15.60
2019-02-20T12:56:43.444Z,15.20
2019-02-20T12:57:36.459Z,16.40
2019-02-20T12:58:35.450Z,16.50
2019-02-20T12:59:36.762Z,15.90
2019-02-20T13:00:35.434Z,16.50
2019-02-20T13:01:35.415Z,16.80
2019-02-20T13:02:36.085Z,17.30
2019-02-20T13:03:35.395Z,17.70
2019-02-20T13:04:35.410Z,17.90
2019-02-20T13:05:35.373Z,19.40
2019-02-20T13:06:35.367Z,20.60
2019-02-20T13:07:35.354Z,17.70
2019-02-20T13:08:35.383Z,17.50
2019-02-20T13:09:35.331Z,17.40
2019-02-20T13:10:35.342Z,17.80
2019-02-20T13:11:35.323Z,16.90
2019-02-20T13:12:35.306Z,19.00
2019-02-20T13:13:35.297Z,19.70
2019-02-20T13:14:36.307Z,18.10
2019-02-20T13:15:35.269Z,18.50